KMEI/MEI METAR and TAF weather

Enter ICAO airport designator
Station Type Date Time Source
KMEI METAR 2019/08/25 19:58 UTC NOAA

KMEI 251958Z 07006KT 10SM CLR 27/24 A2990 RMK AO2 LTG DSNT N AND SE AND S RAB11E24 TSE03B33 SLP122 P0003 T02720239


Station Type Date Time Source
KMEI Decoded METAR 2019/08/25 19:58 UTC NOAA

Station name not available
Aug 25, 2019 - 03:58 PM EDT / 2019.08.25 1958 UTC
Wind: from the ENE (070 degrees) at 7 MPH (6 KT):0
Visibility: 10 mile(s):0
Sky conditions: clear
Weather: Lightning observed
Precipitation last hour: 0.03 inches
Temperature: 81.0 F (27.2 C)
Dew Point: 75.0 F (23.9 C)
Relative Humidity: 82%
Pressure (altimeter): 29.9 in. Hg (1012 hPa)
ob: KMEI 251958Z 07006KT 10SM CLR 27/24 A2990 RMK AO2 LTG DSNT N AND SE AND S RAB11E24 TSE03B33 SLP122 P0003 T02720239
cycle: 20

Station Type Date Time Source
KMEI TAF 2019/08/25 18:03 UTC NOAA

TAF KMEI 251801Z 2518/2618 14008KT 5SM TSRA BR BKN025CB OVC050
FM252000 16005KT P6SM SHRA VCTS SCT015CB OVC050
FM260000 16005KT 5SM SHRA BR BKN015 OVC050
FM261000 14007KT 4SM -SHRA BR BKN008 OVC025

Example: see airport list